sensor_id;sensor_type;location;lat;lon;timestamp;P1;durP1;ratioP1;P2;durP2;ratioP2
9667;SDS011;4872;48.316;10.650;2023-08-24T04:11:17;7.67;;;6.67;;
9667;SDS011;4872;48.316;10.650;2023-08-24T04:13:44;7.67;;;6.97;;
9667;SDS011;4872;48.316;10.650;2023-08-24T04:16:11;8.60;;;7.77;;
9667;SDS011;4872;48.316;10.650;2023-08-24T04:18:38;8.03;;;7.23;;
9667;SDS011;4872;48.316;10.650;2023-08-24T04:21:05;8.70;;;7.90;;
9667;SDS011;4872;48.316;10.650;2023-08-24T04:23:32;8.90;;;7.93;;
9667;SDS011;4872;48.316;10.650;2023-08-24T04:25:59;9.67;;;8.07;;
9667;SDS011;4872;48.316;10.650;2023-08-24T04:28:27;8.77;;;6.97;;
9667;SDS011;4872;48.316;10.650;2023-08-24T04:30:54;8.17;;;7.37;;
9667;SDS011;4872;48.316;10.650;2023-08-24T04:33:23;8.70;;;7.73;;
9667;SDS011;4872;48.316;10.650;2023-08-24T04:35:50;8.47;;;7.63;;
9667;SDS011;4872;48.316;10.650;2023-08-24T04:38:16;8.33;;;7.63;;
9667;SDS011;4872;48.316;10.650;2023-08-24T04:40:45;9.83;;;8.77;;
9667;SDS011;4872;48.316;10.650;2023-08-24T04:43:14;11.70;;;8.13;;
9667;SDS011;4872;48.316;10.650;2023-08-24T04:45:42;10.17;;;8.80;;
9667;SDS011;4872;48.316;10.650;2023-08-24T04:48:08;10.10;;;8.87;;
9667;SDS011;4872;48.316;10.650;2023-08-24T04:50:35;9.30;;;8.50;;
9667;SDS011;4872;48.316;10.650;2023-08-24T04:53:02;9.77;;;8.27;;
9667;SDS011;4872;48.316;10.650;2023-08-24T04:55:29;11.37;;;8.87;;
9667;SDS011;4872;48.316;10.650;2023-08-24T04:57:56;9.20;;;8.13;;
9667;SDS011;4872;48.316;10.650;2023-08-24T05:00:23;8.60;;;7.03;;
9667;SDS011;4872;48.316;10.650;2023-08-24T05:02:51;9.17;;;8.37;;
9667;SDS011;4872;48.316;10.650;2023-08-24T05:05:17;9.00;;;8.10;;
9667;SDS011;4872;48.316;10.650;2023-08-24T05:07:45;8.70;;;7.80;;
9667;SDS011;4872;48.316;10.650;2023-08-24T05:10:12;9.20;;;8.30;;
9667;SDS011;4872;48.316;10.650;2023-08-24T05:12:38;9.03;;;8.07;;
9667;SDS011;4872;48.316;10.650;2023-08-24T05:15:05;8.73;;;7.83;;
9667;SDS011;4872;48.316;10.650;2023-08-24T05:17:33;9.70;;;8.07;;
9667;SDS011;4872;48.316;10.650;2023-08-24T05:20:01;9.23;;;8.17;;
9667;SDS011;4872;48.316;10.650;2023-08-24T05:22:28;9.53;;;8.30;;
9667;SDS011;4872;48.316;10.650;2023-08-24T05:24:55;9.60;;;7.97;;
9667;SDS011;4872;48.316;10.650;2023-08-24T05:27:22;9.60;;;8.23;;
9667;SDS011;4872;48.316;10.650;2023-08-24T05:29:49;9.80;;;7.47;;
9667;SDS011;4872;48.316;10.650;2023-08-24T05:32:15;8.80;;;7.90;;
9667;SDS011;4872;48.316;10.650;2023-08-24T05:34:42;9.03;;;8.13;;
9667;SDS011;4872;48.316;10.650;2023-08-24T05:37:10;9.03;;;8.13;;
9667;SDS011;4872;48.316;10.650;2023-08-24T05:39:37;8.63;;;7.83;;
9667;SDS011;4872;48.316;10.650;2023-08-24T05:42:04;9.00;;;8.20;;
9667;SDS011;4872;48.316;10.650;2023-08-24T05:44:31;9.20;;;8.37;;
9667;SDS011;4872;48.316;10.650;2023-08-24T05:46:58;9.43;;;8.33;;
9667;SDS011;4872;48.316;10.650;2023-08-24T05:49:24;10.60;;;9.70;;
9667;SDS011;4872;48.316;10.650;2023-08-24T05:51:51;11.23;;;9.87;;
9667;SDS011;4872;48.316;10.650;2023-08-24T05:54:20;11.33;;;10.17;;
9667;SDS011;4872;48.316;10.650;2023-08-24T05:56:46;11.73;;;10.33;;
9667;SDS011;4872;48.316;10.650;2023-08-24T05:59:14;12.27;;;9.80;;
9667;SDS011;4872;48.316;10.650;2023-08-24T06:01:41;12.03;;;10.83;;
9667;SDS011;4872;48.316;10.650;2023-08-24T06:04:08;12.07;;;10.53;;
9667;SDS011;4872;48.316;10.650;2023-08-24T06:06:35;12.80;;;11.10;;
9667;SDS011;4872;48.316;10.650;2023-08-24T06:09:02;12.37;;;10.07;;
9667;SDS011;4872;48.316;10.650;2023-08-24T06:11:31;11.57;;;10.37;;
9667;SDS011;4872;48.316;10.650;2023-08-24T06:13:59;11.93;;;10.67;;
9667;SDS011;4872;48.316;10.650;2023-08-24T06:16:25;14.03;;;11.80;;
9667;SDS011;4872;48.316;10.650;2023-08-24T06:18:52;12.47;;;11.17;;
9667;SDS011;4872;48.316;10.650;2023-08-24T06:21:19;11.43;;;10.30;;
9667;SDS011;4872;48.316;10.650;2023-08-24T06:23:46;11.70;;;10.60;;
9667;SDS011;4872;48.316;10.650;2023-08-24T06:26:13;11.43;;;10.33;;
9667;SDS011;4872;48.316;10.650;2023-08-24T06:28:41;12.17;;;10.97;;
9667;SDS011;4872;48.316;10.650;2023-08-24T06:31:08;12.23;;;11.03;;
9667;SDS011;4872;48.316;10.650;2023-08-24T06:33:35;12.67;;;11.27;;
9667;SDS011;4872;48.316;10.650;2023-08-24T06:36:03;12.37;;;11.00;;
9667;SDS011;4872;48.316;10.650;2023-08-24T06:38:31;12.80;;;11.50;;
9667;SDS011;4872;48.316;10.650;2023-08-24T06:40:58;12.73;;;10.43;;
9667;SDS011;4872;48.316;10.650;2023-08-24T06:43:24;11.37;;;10.37;;
9667;SDS011;4872;48.316;10.650;2023-08-24T06:45:54;13.40;;;11.17;;
9667;SDS011;4872;48.316;10.650;2023-08-24T06:48:21;12.30;;;11.07;;
9667;SDS011;4872;48.316;10.650;2023-08-24T06:50:48;15.10;;;10.37;;
9667;SDS011;4872;48.316;10.650;2023-08-24T06:53:14;13.53;;;10.10;;
9667;SDS011;4872;48.316;10.650;2023-08-24T06:55:41;11.77;;;10.63;;
9667;SDS011;4872;48.316;10.650;2023-08-24T06:58:08;12.30;;;10.77;;
9667;SDS011;4872;48.316;10.650;2023-08-24T07:00:35;10.23;;;9.23;;
9667;SDS011;4872;48.316;10.650;2023-08-24T07:03:03;16.37;;;9.90;;
9667;SDS011;4872;48.316;10.650;2023-08-24T07:05:31;12.43;;;9.80;;
9667;SDS011;4872;48.316;10.650;2023-08-24T07:07:58;11.77;;;10.00;;
9667;SDS011;4872;48.316;10.650;2023-08-24T07:10:25;23.00;;;9.97;;
9667;SDS011;4872;48.316;10.650;2023-08-24T07:12:52;10.93;;;9.27;;
9667;SDS011;4872;48.316;10.650;2023-08-24T07:15:19;9.83;;;8.80;;
9667;SDS011;4872;48.316;10.650;2023-08-24T07:17:46;10.93;;;9.80;;
9667;SDS011;4872;48.316;10.650;2023-08-24T07:20:14;9.47;;;8.20;;
9667;SDS011;4872;48.316;10.650;2023-08-24T07:22:41;10.33;;;8.60;;
9667;SDS011;4872;48.316;10.650;2023-08-24T07:25:08;9.30;;;8.23;;
9667;SDS011;4872;48.316;10.650;2023-08-24T07:27:36;9.07;;;7.97;;
9667;SDS011;4872;48.316;10.650;2023-08-24T07:30:03;9.00;;;8.07;;
9667;SDS011;4872;48.316;10.650;2023-08-24T07:32:31;9.47;;;8.57;;
9667;SDS011;4872;48.316;10.650;2023-08-24T07:34:58;8.70;;;7.77;;
9667;SDS011;4872;48.316;10.650;2023-08-24T07:37:27;9.13;;;8.23;;
9667;SDS011;4872;48.316;10.650;2023-08-24T07:39:53;9.50;;;8.20;;
9667;SDS011;4872;48.316;10.650;2023-08-24T07:42:20;10.53;;;7.73;;
9667;SDS011;4872;48.316;10.650;2023-08-24T07:44:48;9.80;;;8.90;;
9667;SDS011;4872;48.316;10.650;2023-08-24T07:47:15;9.17;;;8.37;;
9667;SDS011;4872;48.316;10.650;2023-08-24T07:49:42;9.43;;;8.33;;
9667;SDS011;4872;48.316;10.650;2023-08-24T07:52:09;8.83;;;8.00;;
9667;SDS011;4872;48.316;10.650;2023-08-24T07:54:38;8.97;;;7.93;;
9667;SDS011;4872;48.316;10.650;2023-08-24T07:57:05;10.67;;;7.90;;
9667;SDS011;4872;48.316;10.650;2023-08-24T07:59:32;8.33;;;7.53;;
9667;SDS011;4872;48.316;10.650;2023-08-24T08:01:59;11.47;;;7.93;;
9667;SDS011;4872;48.316;10.650;2023-08-24T08:04:26;9.23;;;8.33;;
9667;SDS011;4872;48.316;10.650;2023-08-24T08:06:53;9.43;;;8.53;;
9667;SDS011;4872;48.316;10.650;2023-08-24T08:09:20;11.97;;;7.87;;
9667;SDS011;4872;48.316;10.650;2023-08-24T08:11:49;9.27;;;8.20;;
9667;SDS011;4872;48.316;10.650;2023-08-24T08:14:16;10.27;;;8.03;;
9667;SDS011;4872;48.316;10.650;2023-08-24T08:16:43;11.17;;;7.70;;
9667;SDS011;4872;48.316;10.650;2023-08-24T08:19:10;9.50;;;8.00;;
9667;SDS011;4872;48.316;10.650;2023-08-24T08:21:37;8.53;;;7.73;;
9667;SDS011;4872;48.316;10.650;2023-08-24T08:24:03;10.77;;;8.07;;
9667;SDS011;4872;48.316;10.650;2023-08-24T08:26:30;9.33;;;8.00;;
9667;SDS011;4872;48.316;10.650;2023-08-24T08:28:58;11.77;;;8.47;;
9667;SDS011;4872;48.316;10.650;2023-08-24T08:31:25;10.00;;;7.87;;
9667;SDS011;4872;48.316;10.650;2023-08-24T08:33:52;8.47;;;7.73;;
9667;SDS011;4872;48.316;10.650;2023-08-24T08:36:19;11.23;;;7.63;;
9667;SDS011;4872;48.316;10.650;2023-08-24T08:38:45;8.67;;;7.13;;
9667;SDS011;4872;48.316;10.650;2023-08-24T08:41:12;8.77;;;7.97;;
9667;SDS011;4872;48.316;10.650;2023-08-24T08:43:43;7.97;;;7.23;;
9667;SDS011;4872;48.316;10.650;2023-08-24T08:46:11;10.43;;;7.50;;
9667;SDS011;4872;48.316;10.650;2023-08-24T08:48:40;8.13;;;7.33;;
9667;SDS011;4872;48.316;10.650;2023-08-24T08:51:08;8.63;;;7.70;;
9667;SDS011;4872;48.316;10.650;2023-08-24T08:53:36;8.97;;;7.80;;
9667;SDS011;4872;48.316;10.650;2023-08-24T08:56:03;9.80;;;8.03;;
9667;SDS011;4872;48.316;10.650;2023-08-24T08:58:31;8.60;;;7.70;;
9667;SDS011;4872;48.316;10.650;2023-08-24T09:00:58;10.17;;;7.83;;
9667;SDS011;4872;48.316;10.650;2023-08-24T09:03:30;8.17;;;7.30;;
9667;SDS011;4872;48.316;10.650;2023-08-24T09:05:58;8.73;;;7.43;;
9667;SDS011;4872;48.316;10.650;2023-08-24T09:08:25;9.00;;;8.13;;
9667;SDS011;4872;48.316;10.650;2023-08-24T09:10:53;11.60;;;8.63;;
9667;SDS011;4872;48.316;10.650;2023-08-24T09:13:20;8.37;;;7.57;;
9667;SDS011;4872;48.316;10.650;2023-08-24T09:15:47;10.40;;;7.90;;
9667;SDS011;4872;48.316;10.650;2023-08-24T09:18:18;11.70;;;8.43;;
9667;SDS011;4872;48.316;10.650;2023-08-24T09:20:47;11.43;;;8.40;;
9667;SDS011;4872;48.316;10.650;2023-08-24T09:23:17;10.40;;;7.90;;
9667;SDS011;4872;48.316;10.650;2023-08-24T09:25:46;8.77;;;7.93;;
9667;SDS011;4872;48.316;10.650;2023-08-24T09:28:13;9.63;;;7.97;;
9667;SDS011;4872;48.316;10.650;2023-08-24T09:30:49;9.05;;;8.15;;
9667;SDS011;4872;48.316;10.650;2023-08-24T09:33:19;9.63;;;8.07;;
9667;SDS011;4872;48.316;10.650;2023-08-24T09:35:52;12.07;;;7.82;;
9667;SDS011;4872;48.316;10.650;2023-08-24T09:38:26;9.75;;;7.53;;
9667;SDS011;4872;48.316;10.650;2023-08-24T09:40:53;7.75;;;7.00;;
9667;SDS011;4872;48.316;10.650;2023-08-24T09:43:21;9.10;;;8.05;;
9667;SDS011;4872;48.316;10.650;2023-08-24T09:45:49;8.73;;;7.28;;
9667;SDS011;4872;48.316;10.650;2023-08-24T09:48:16;8.30;;;7.57;;
9667;SDS011;4872;48.316;10.650;2023-08-24T09:50:44;10.38;;;7.75;;
9667;SDS011;4872;48.316;10.650;2023-08-24T09:53:14;9.73;;;7.85;;
9667;SDS011;4872;48.316;10.650;2023-08-24T09:55:44;11.00;;;7.85;;
9667;SDS011;4872;48.316;10.650;2023-08-24T09:58:14;8.43;;;7.57;;
9667;SDS011;4872;48.316;10.650;2023-08-24T10:00:42;8.07;;;7.28;;
9667;SDS011;4872;48.316;10.650;2023-08-24T10:03:11;11.02;;;8.00;;
9667;SDS011;4872;48.316;10.650;2023-08-24T10:05:44;8.55;;;7.60;;
9667;SDS011;4872;48.316;10.650;2023-08-24T10:08:13;7.53;;;6.88;;
9667;SDS011;4872;48.316;10.650;2023-08-24T10:10:41;9.85;;;7.55;;
9667;SDS011;4872;48.316;10.650;2023-08-24T10:13:11;8.48;;;7.47;;
9667;SDS011;4872;48.316;10.650;2023-08-24T10:15:44;7.57;;;6.70;;
9667;SDS011;4872;48.316;10.650;2023-08-24T10:18:13;8.38;;;7.55;;
9667;SDS011;4872;48.316;10.650;2023-08-24T10:20:40;8.05;;;6.78;;
9667;SDS011;4872;48.316;10.650;2023-08-24T10:23:09;10.15;;;7.57;;
9667;SDS011;4872;48.316;10.650;2023-08-24T10:25:39;8.15;;;6.60;;
9667;SDS011;4872;48.316;10.650;2023-08-24T10:28:07;7.93;;;7.13;;
9667;SDS011;4872;48.316;10.650;2023-08-24T10:30:35;8.20;;;7.50;;
9667;SDS011;4872;48.316;10.650;2023-08-24T10:33:03;8.50;;;7.05;;
9667;SDS011;4872;48.316;10.650;2023-08-24T10:35:30;8.20;;;6.40;;
9667;SDS011;4872;48.316;10.650;2023-08-24T10:37:58;7.38;;;6.65;;
9667;SDS011;4872;48.316;10.650;2023-08-24T10:40:31;7.35;;;6.38;;
9667;SDS011;4872;48.316;10.650;2023-08-24T10:43:03;7.93;;;6.97;;
9667;SDS011;4872;48.316;10.650;2023-08-24T10:48:23;8.75;;;6.57;;
9667;SDS011;4872;48.316;10.650;2023-08-24T10:53:45;6.35;;;5.75;;
9667;SDS011;4872;48.316;10.650;2023-08-24T10:56:13;7.18;;;6.43;;
9667;SDS011;4872;48.316;10.650;2023-08-24T10:58:42;6.78;;;6.18;;
9667;SDS011;4872;48.316;10.650;2023-08-24T11:01:14;6.72;;;6.13;;
9667;SDS011;4872;48.316;10.650;2023-08-24T11:03:45;5.93;;;5.22;;
9667;SDS011;4872;48.316;10.650;2023-08-24T11:06:18;6.93;;;6.32;;
9667;SDS011;4872;48.316;10.650;2023-08-24T11:08:47;7.38;;;6.68;;
9667;SDS011;4872;48.316;10.650;2023-08-24T11:11:20;7.82;;;7.10;;
9667;SDS011;4872;48.316;10.650;2023-08-24T11:16:44;6.93;;;6.07;;
9667;SDS011;4872;48.316;10.650;2023-08-24T11:19:13;9.05;;;6.38;;
9667;SDS011;4872;48.316;10.650;2023-08-24T11:21:40;6.80;;;6.05;;
9667;SDS011;4872;48.316;10.650;2023-08-24T11:24:08;7.53;;;6.70;;
9667;SDS011;4872;48.316;10.650;2023-08-24T11:26:39;7.00;;;6.32;;
9667;SDS011;4872;48.316;10.650;2023-08-24T11:29:08;7.22;;;6.20;;
9667;SDS011;4872;48.316;10.650;2023-08-24T11:31:36;8.38;;;6.63;;
9667;SDS011;4872;48.316;10.650;2023-08-24T11:34:04;9.32;;;6.55;;
9667;SDS011;4872;48.316;10.650;2023-08-24T11:36:38;7.90;;;6.05;;
9667;SDS011;4872;48.316;10.650;2023-08-24T11:39:13;7.25;;;6.60;;
9667;SDS011;4872;48.316;10.650;2023-08-24T11:41:41;6.68;;;6.07;;
9667;SDS011;4872;48.316;10.650;2023-08-24T11:44:08;8.27;;;6.30;;
9667;SDS011;4872;48.316;10.650;2023-08-24T11:46:34;6.90;;;6.03;;
9667;SDS011;4872;48.316;10.650;2023-08-24T11:49:05;7.05;;;5.75;;
9667;SDS011;4872;48.316;10.650;2023-08-24T11:51:32;8.18;;;5.82;;
9667;SDS011;4872;48.316;10.650;2023-08-24T11:54:00;7.60;;;6.13;;
9667;SDS011;4872;48.316;10.650;2023-08-24T11:56:27;7.40;;;6.32;;
9667;SDS011;4872;48.316;10.650;2023-08-24T11:58:54;6.85;;;6.15;;
9667;SDS011;4872;48.316;10.650;2023-08-24T12:01:21;6.63;;;5.93;;
9667;SDS011;4872;48.316;10.650;2023-08-24T12:03:49;8.93;;;5.97;;
9667;SDS011;4872;48.316;10.650;2023-08-24T12:06:16;10.25;;;5.78;;
9667;SDS011;4872;48.316;10.650;2023-08-24T12:08:44;6.55;;;5.82;;
9667;SDS011;4872;48.316;10.650;2023-08-24T12:11:13;6.78;;;6.05;;
9667;SDS011;4872;48.316;10.650;2023-08-24T12:13:43;9.20;;;6.15;;
9667;SDS011;4872;48.316;10.650;2023-08-24T12:16:12;10.63;;;5.97;;
9667;SDS011;4872;48.316;10.650;2023-08-24T12:18:53;8.05;;;6.03;;
9667;SDS011;4872;48.316;10.650;2023-08-24T12:21:21;7.45;;;5.68;;
9667;SDS011;4872;48.316;10.650;2023-08-24T12:23:55;6.47;;;5.90;;
9667;SDS011;4872;48.316;10.650;2023-08-24T12:26:22;8.18;;;6.40;;
9667;SDS011;4872;48.316;10.650;2023-08-24T12:28:50;12.57;;;6.82;;
9667;SDS011;4872;48.316;10.650;2023-08-24T12:31:17;7.85;;;5.43;;
9667;SDS011;4872;48.316;10.650;2023-08-24T12:33:45;7.75;;;5.80;;
9667;SDS011;4872;48.316;10.650;2023-08-24T12:36:16;7.50;;;6.15;;
9667;SDS011;4872;48.316;10.650;2023-08-24T12:38:43;8.98;;;6.00;;
9667;SDS011;4872;48.316;10.650;2023-08-24T12:41:11;9.05;;;5.88;;
9667;SDS011;4872;48.316;10.650;2023-08-24T12:43:37;7.32;;;5.85;;
9667;SDS011;4872;48.316;10.650;2023-08-24T12:46:04;6.85;;;5.60;;
9667;SDS011;4872;48.316;10.650;2023-08-24T12:48:31;6.97;;;6.25;;
9667;SDS011;4872;48.316;10.650;2023-08-24T12:50:58;7.45;;;5.97;;
9667;SDS011;4872;48.316;10.650;2023-08-24T12:53:26;7.10;;;5.90;;
9667;SDS011;4872;48.316;10.650;2023-08-24T12:55:53;6.50;;;5.88;;
9667;SDS011;4872;48.316;10.650;2023-08-24T12:58:19;7.38;;;5.43;;
9667;SDS011;4872;48.316;10.650;2023-08-24T13:00:46;6.05;;;5.45;;
9667;SDS011;4872;48.316;10.650;2023-08-24T13:03:13;6.18;;;5.50;;
9667;SDS011;4872;48.316;10.650;2023-08-24T13:05:40;6.82;;;5.32;;
9667;SDS011;4872;48.316;10.650;2023-08-24T13:08:07;7.07;;;6.05;;
9667;SDS011;4872;48.316;10.650;2023-08-24T13:10:35;9.38;;;5.72;;
9667;SDS011;4872;48.316;10.650;2023-08-24T13:13:02;12.80;;;6.57;;
9667;SDS011;4872;48.316;10.650;2023-08-24T13:15:29;7.30;;;5.85;;
9667;SDS011;4872;48.316;10.650;2023-08-24T13:17:56;8.13;;;5.35;;
9667;SDS011;4872;48.316;10.650;2023-08-24T13:20:23;11.32;;;6.10;;
9667;SDS011;4872;48.316;10.650;2023-08-24T13:22:50;10.63;;;5.47;;
9667;SDS011;4872;48.316;10.650;2023-08-24T13:25:17;7.80;;;5.15;;
9667;SDS011;4872;48.316;10.650;2023-08-24T13:27:46;8.18;;;5.75;;
9667;SDS011;4872;48.316;10.650;2023-08-24T13:30:12;5.65;;;5.03;;
9667;SDS011;4872;48.316;10.650;2023-08-24T13:32:39;6.43;;;5.72;;
9667;SDS011;4872;48.316;10.650;2023-08-24T13:35:07;6.13;;;5.53;;
9667;SDS011;4872;48.316;10.650;2023-08-24T13:37:34;6.70;;;5.60;;
9667;SDS011;4872;48.316;10.650;2023-08-24T13:40:01;6.97;;;4.93;;
9667;SDS011;4872;48.316;10.650;2023-08-24T13:42:29;9.73;;;5.97;;
9667;SDS011;4872;48.316;10.650;2023-08-24T13:44:57;7.30;;;5.55;;
9667;SDS011;4872;48.316;10.650;2023-08-24T13:47:24;6.40;;;5.07;;
9667;SDS011;4872;48.316;10.650;2023-08-24T13:49:50;8.50;;;5.05;;
9667;SDS011;4872;48.316;10.650;2023-08-24T13:52:17;10.18;;;4.97;;
9667;SDS011;4872;48.316;10.650;2023-08-24T13:54:44;7.47;;;4.75;;
9667;SDS011;4872;48.316;10.650;2023-08-24T13:57:11;10.80;;;5.50;;
9667;SDS011;4872;48.316;10.650;2023-08-24T13:59:38;6.82;;;5.30;;
9667;SDS011;4872;48.316;10.650;2023-08-24T14:02:06;6.38;;;5.18;;
9667;SDS011;4872;48.316;10.650;2023-08-24T14:04:33;5.75;;;5.15;;
9667;SDS011;4872;48.316;10.650;2023-08-24T14:07:00;6.93;;;4.78;;
9667;SDS011;4872;48.316;10.650;2023-08-24T14:09:27;8.05;;;5.95;;
9667;SDS011;4872;48.316;10.650;2023-08-24T14:11:53;10.95;;;5.32;;
9667;SDS011;4872;48.316;10.650;2023-08-24T14:14:20;8.10;;;4.82;;
9667;SDS011;4872;48.316;10.650;2023-08-24T14:16:48;8.02;;;4.93;;
9667;SDS011;4872;48.316;10.650;2023-08-24T14:19:21;7.03;;;5.07;;
9667;SDS011;4872;48.316;10.650;2023-08-24T14:21:48;6.45;;;4.53;;
9667;SDS011;4872;48.316;10.650;2023-08-24T14:24:15;11.85;;;6.13;;
9667;SDS011;4872;48.316;10.650;2023-08-24T14:26:42;6.55;;;5.18;;
9667;SDS011;4872;48.316;10.650;2023-08-24T14:29:11;6.50;;;4.93;;
9667;SDS011;4872;48.316;10.650;2023-08-24T14:31:38;7.80;;;5.10;;
9667;SDS011;4872;48.316;10.650;2023-08-24T14:34:05;5.18;;;4.63;;
9667;SDS011;4872;48.316;10.650;2023-08-24T14:36:33;8.15;;;4.55;;
9667;SDS011;4872;48.316;10.650;2023-08-24T14:38:59;7.82;;;4.93;;
9667;SDS011;4872;48.316;10.650;2023-08-24T14:41:27;5.82;;;4.95;;
9667;SDS011;4872;48.316;10.650;2023-08-24T14:43:54;7.22;;;4.80;;
9667;SDS011;4872;48.316;10.650;2023-08-24T14:46:20;10.85;;;4.93;;
9667;SDS011;4872;48.316;10.650;2023-08-24T14:48:47;5.75;;;4.70;;
9667;SDS011;4872;48.316;10.650;2023-08-24T14:51:14;7.03;;;5.35;;
9667;SDS011;4872;48.316;10.650;2023-08-24T14:53:42;7.20;;;5.03;;
9667;SDS011;4872;48.316;10.650;2023-08-24T14:56:09;5.72;;;4.68;;
9667;SDS011;4872;48.316;10.650;2023-08-24T14:58:36;5.57;;;4.82;;
9667;SDS011;4872;48.316;10.650;2023-08-24T15:01:02;5.53;;;4.20;;
9667;SDS011;4872;48.316;10.650;2023-08-24T15:03:30;6.95;;;5.03;;
9667;SDS011;4872;48.316;10.650;2023-08-24T15:05:57;14.73;;;5.32;;
9667;SDS011;4872;48.316;10.650;2023-08-24T15:08:25;9.30;;;5.53;;
9667;SDS011;4872;48.316;10.650;2023-08-24T15:10:55;7.50;;;6.07;;
9667;SDS011;4872;48.316;10.650;2023-08-24T15:13:23;7.22;;;4.50;;
9667;SDS011;4872;48.316;10.650;2023-08-24T15:15:53;7.53;;;5.18;;
9667;SDS011;4872;48.316;10.650;2023-08-24T15:18:20;8.45;;;5.00;;
9667;SDS011;4872;48.316;10.650;2023-08-24T15:20:47;7.68;;;4.53;;
9667;SDS011;4872;48.316;10.650;2023-08-24T15:23:21;6.95;;;5.22;;
9667;SDS011;4872;48.316;10.650;2023-08-24T15:25:49;5.43;;;3.85;;
9667;SDS011;4872;48.316;10.650;2023-08-24T15:28:17;7.05;;;4.38;;
9667;SDS011;4872;48.316;10.650;2023-08-24T15:30:44;9.30;;;5.25;;
9667;SDS011;4872;48.316;10.650;2023-08-24T15:33:11;6.45;;;4.63;;
9667;SDS011;4872;48.316;10.650;2023-08-24T15:35:39;8.48;;;4.75;;
9667;SDS011;4872;48.316;10.650;2023-08-24T15:38:06;8.48;;;4.20;;
9667;SDS011;4872;48.316;10.650;2023-08-24T15:40:33;16.85;;;5.22;;
9667;SDS011;4872;48.316;10.650;2023-08-24T15:43:00;8.88;;;4.93;;
9667;SDS011;4872;48.316;10.650;2023-08-24T15:45:29;10.27;;;5.45;;
9667;SDS011;4872;48.316;10.650;2023-08-24T15:47:56;12.55;;;4.88;;
9667;SDS011;4872;48.316;10.650;2023-08-24T15:50:24;13.35;;;5.32;;
9667;SDS011;4872;48.316;10.650;2023-08-24T15:52:51;15.80;;;6.15;;
9667;SDS011;4872;48.316;10.650;2023-08-24T15:55:23;9.93;;;4.70;;
9667;SDS011;4872;48.316;10.650;2023-08-24T15:57:50;13.52;;;4.80;;
9667;SDS011;4872;48.316;10.650;2023-08-24T16:00:17;12.70;;;5.18;;
9667;SDS011;4872;48.316;10.650;2023-08-24T16:02:46;11.13;;;5.30;;
9667;SDS011;4872;48.316;10.650;2023-08-24T16:05:13;10.90;;;4.82;;
9667;SDS011;4872;48.316;10.650;2023-08-24T16:07:40;11.32;;;4.80;;
9667;SDS011;4872;48.316;10.650;2023-08-24T16:10:07;10.43;;;5.30;;
9667;SDS011;4872;48.316;10.650;2023-08-24T16:12:34;8.23;;;4.88;;
9667;SDS011;4872;48.316;10.650;2023-08-24T16:15:01;11.32;;;5.20;;
9667;SDS011;4872;48.316;10.650;2023-08-24T16:17:29;10.23;;;5.00;;
9667;SDS011;4872;48.316;10.650;2023-08-24T16:19:58;5.95;;;4.45;;
9667;SDS011;4872;48.316;10.650;2023-08-24T16:22:25;10.55;;;5.05;;
9667;SDS011;4872;48.316;10.650;2023-08-24T16:24:51;8.15;;;4.82;;
9667;SDS011;4872;48.316;10.650;2023-08-24T16:27:18;7.32;;;5.15;;
9667;SDS011;4872;48.316;10.650;2023-08-24T16:29:45;7.93;;;5.13;;
9667;SDS011;4872;48.316;10.650;2023-08-24T16:32:12;9.45;;;5.35;;
9667;SDS011;4872;48.316;10.650;2023-08-24T16:34:39;9.63;;;5.00;;
9667;SDS011;4872;48.316;10.650;2023-08-24T16:37:07;10.90;;;5.97;;
9667;SDS011;4872;48.316;10.650;2023-08-24T16:39:33;9.40;;;5.00;;
9667;SDS011;4872;48.316;10.650;2023-08-24T16:42:00;9.77;;;5.35;;
9667;SDS011;4872;48.316;10.650;2023-08-24T16:44:28;11.52;;;5.70;;
9667;SDS011;4872;48.316;10.650;2023-08-24T16:46:55;6.97;;;5.00;;
9667;SDS011;4872;48.316;10.650;2023-08-24T16:49:22;10.05;;;5.47;;
9667;SDS011;4872;48.316;10.650;2023-08-24T16:51:49;11.15;;;5.43;;
9667;SDS011;4872;48.316;10.650;2023-08-24T16:54:17;6.93;;;5.20;;
9667;SDS011;4872;48.316;10.650;2023-08-24T16:56:43;10.32;;;5.88;;
9667;SDS011;4872;48.316;10.650;2023-08-24T16:59:10;10.85;;;5.60;;
9667;SDS011;4872;48.316;10.650;2023-08-24T17:01:37;7.57;;;5.68;;
9667;SDS011;4872;48.316;10.650;2023-08-24T17:04:04;10.13;;;6.50;;
9667;SDS011;4872;48.316;10.650;2023-08-24T17:06:31;11.95;;;6.60;;
9667;SDS011;4872;48.316;10.650;2023-08-24T17:08:57;8.20;;;6.18;;
9667;SDS011;4872;48.316;10.650;2023-08-24T17:11:25;9.13;;;6.30;;
9667;SDS011;4872;48.316;10.650;2023-08-24T17:13:52;8.88;;;6.50;;
9667;SDS011;4872;48.316;10.650;2023-08-24T17:16:19;9.82;;;6.68;;
9667;SDS011;4872;48.316;10.650;2023-08-24T17:18:46;10.15;;;7.40;;
9667;SDS011;4872;48.316;10.650;2023-08-24T17:21:13;10.23;;;6.70;;
9667;SDS011;4872;48.316;10.650;2023-08-24T17:23:40;9.32;;;7.13;;
9667;SDS011;4872;48.316;10.650;2023-08-24T17:26:07;8.38;;;6.82;;
9667;SDS011;4872;48.316;10.650;2023-08-24T17:28:36;11.75;;;9.07;;
9667;SDS011;4872;48.316;10.650;2023-08-24T17:31:02;12.57;;;8.13;;
9667;SDS011;4872;48.316;10.650;2023-08-24T17:33:31;20.02;;;9.73;;
9667;SDS011;4872;48.316;10.650;2023-08-24T17:35:58;16.38;;;9.52;;
9667;SDS011;4872;48.316;10.650;2023-08-24T17:38:26;15.20;;;7.28;;
9667;SDS011;4872;48.316;10.650;2023-08-24T17:40:55;10.25;;;6.78;;
9667;SDS011;4872;48.316;10.650;2023-08-24T17:43:26;15.10;;;7.25;;
9667;SDS011;4872;48.316;10.650;2023-08-24T17:45:54;13.57;;;7.50;;
9667;SDS011;4872;48.316;10.650;2023-08-24T17:48:21;12.82;;;10.32;;
9667;SDS011;4872;48.316;10.650;2023-08-24T17:50:52;14.25;;;8.98;;
9667;SDS011;4872;48.316;10.650;2023-08-24T17:53:20;14.75;;;7.65;;
9667;SDS011;4872;48.316;10.650;2023-08-24T17:55:52;10.95;;;8.07;;
9667;SDS011;4872;48.316;10.650;2023-08-24T17:58:20;16.80;;;8.05;;
9667;SDS011;4872;48.316;10.650;2023-08-24T18:00:46;12.73;;;7.70;;
9667;SDS011;4872;48.316;10.650;2023-08-24T18:03:15;12.55;;;7.57;;
9667;SDS011;4872;48.316;10.650;2023-08-24T18:05:42;11.70;;;7.47;;
9667;SDS011;4872;48.316;10.650;2023-08-24T18:08:09;11.77;;;7.38;;
9667;SDS011;4872;48.316;10.650;2023-08-24T18:10:36;12.85;;;7.85;;
9667;SDS011;4872;48.316;10.650;2023-08-24T18:13:03;11.10;;;6.80;;
9667;SDS011;4872;48.316;10.650;2023-08-24T18:15:32;10.93;;;9.10;;
9667;SDS011;4872;48.316;10.650;2023-08-24T18:17:59;10.07;;;8.90;;
9667;SDS011;4872;48.316;10.650;2023-08-24T18:20:27;10.85;;;8.68;;
9667;SDS011;4872;48.316;10.650;2023-08-24T18:22:54;12.48;;;7.38;;
9667;SDS011;4872;48.316;10.650;2023-08-24T18:25:22;13.20;;;7.28;;
9667;SDS011;4872;48.316;10.650;2023-08-24T18:27:49;12.75;;;7.93;;
9667;SDS011;4872;48.316;10.650;2023-08-24T18:30:16;9.95;;;8.90;;
9667;SDS011;4872;48.316;10.650;2023-08-24T18:32:43;17.73;;;8.88;;
9667;SDS011;4872;48.316;10.650;2023-08-24T18:35:10;9.73;;;7.72;;
9667;SDS011;4872;48.316;10.650;2023-08-24T18:37:38;13.30;;;8.75;;
9667;SDS011;4872;48.316;10.650;2023-08-24T18:40:06;12.65;;;9.18;;
9667;SDS011;4872;48.316;10.650;2023-08-24T18:42:34;11.60;;;9.32;;
9667;SDS011;4872;48.316;10.650;2023-08-24T18:45:01;12.00;;;7.68;;
9667;SDS011;4872;48.316;10.650;2023-08-24T18:47:28;11.07;;;6.90;;
9667;SDS011;4872;48.316;10.650;2023-08-24T18:49:55;11.73;;;6.63;;
9667;SDS011;4872;48.316;10.650;2023-08-24T18:52:22;11.30;;;6.00;;
9667;SDS011;4872;48.316;10.650;2023-08-24T18:54:50;8.85;;;5.50;;
9667;SDS011;4872;48.316;10.650;2023-08-24T18:57:17;9.82;;;5.15;;
9667;SDS011;4872;48.316;10.650;2023-08-24T18:59:44;10.43;;;5.90;;
9667;SDS011;4872;48.316;10.650;2023-08-24T19:02:10;10.30;;;6.20;;
9667;SDS011;4872;48.316;10.650;2023-08-24T19:04:40;8.37;;;5.57;;
9667;SDS011;4872;48.316;10.650;2023-08-24T19:07:07;12.17;;;6.57;;
9667;SDS011;4872;48.316;10.650;2023-08-24T19:09:33;11.65;;;7.50;;
9667;SDS011;4872;48.316;10.650;2023-08-24T19:12:03;9.13;;;6.90;;
9667;SDS011;4872;48.316;10.650;2023-08-24T19:14:31;9.70;;;6.77;;
9667;SDS011;4872;48.316;10.650;2023-08-24T19:16:59;13.70;;;7.67;;